sensor_id;sensor_type;location;lat;lon;timestamp;pressure;altitude;pressure_sealevel;temperature;humidity
82474;BME280;72350;53.232;6.556;2024-02-14T00:01:49;101125.38;;;7.20;95.52
82474;BME280;72350;53.232;6.556;2024-02-14T00:04:17;101121.91;;;7.18;95.55
82474;BME280;72350;53.232;6.556;2024-02-14T00:06:46;101121.22;;;7.16;95.63
82474;BME280;72350;53.232;6.556;2024-02-14T00:09:14;101119.66;;;7.14;96.49
82474;BME280;72350;53.232;6.556;2024-02-14T00:11:43;101107.81;;;7.13;96.36
82474;BME280;72350;53.232;6.556;2024-02-14T00:14:11;101105.19;;;7.21;96.46
82474;BME280;72350;53.232;6.556;2024-02-14T00:16:39;101090.50;;;7.13;96.83
82474;BME280;72350;53.232;6.556;2024-02-14T00:19:07;101089.13;;;7.09;97.44
82474;BME280;72350;53.232;6.556;2024-02-14T00:21:35;101080.94;;;6.99;98.09
82474;BME280;72350;53.232;6.556;2024-02-14T00:24:04;101085.00;;;6.95;98.29
82474;BME280;72350;53.232;6.556;2024-02-14T00:26:32;101093.06;;;6.96;99.19
82474;BME280;72350;53.232;6.556;2024-02-14T00:29:01;101082.66;;;7.00;99.54
82474;BME280;72350;53.232;6.556;2024-02-14T00:31:29;101078.81;;;6.93;99.67
82474;BME280;72350;53.232;6.556;2024-02-14T00:33:57;101067.41;;;6.97;100.00
82474;BME280;72350;53.232;6.556;2024-02-14T00:36:25;101067.69;;;6.94;100.00
82474;BME280;72350;53.232;6.556;2024-02-14T00:38:53;101066.22;;;7.00;100.00
82474;BME280;72350;53.232;6.556;2024-02-14T00:41:21;101058.94;;;6.91;100.00
82474;BME280;72350;53.232;6.556;2024-02-14T00:43:49;101061.50;;;6.92;100.00
82474;BME280;72350;53.232;6.556;2024-02-14T00:46:18;101060.75;;;7.00;100.00
82474;BME280;72350;53.232;6.556;2024-02-14T00:48:46;101048.63;;;7.03;100.00
82474;BME280;72350;53.232;6.556;2024-02-14T00:51:14;101039.31;;;6.95;100.00
82474;BME280;72350;53.232;6.556;2024-02-14T00:53:42;101047.94;;;7.00;100.00
82474;BME280;72350;53.232;6.556;2024-02-14T00:56:10;101035.50;;;7.06;100.00
82474;BME280;72350;53.232;6.556;2024-02-14T00:58:37;101037.53;;;7.04;100.00
82474;BME280;72350;53.232;6.556;2024-02-14T01:01:05;101025.00;;;7.02;100.00
82474;BME280;72350;53.232;6.556;2024-02-14T01:03:35;101027.34;;;6.96;100.00
82474;BME280;72350;53.232;6.556;2024-02-14T01:06:02;101026.03;;;7.00;100.00
82474;BME280;72350;53.232;6.556;2024-02-14T01:08:30;101018.28;;;6.96;100.00
82474;BME280;72350;53.232;6.556;2024-02-14T01:11:00;101008.44;;;7.03;100.00
82474;BME280;72350;53.232;6.556;2024-02-14T01:13:28;101008.25;;;7.05;100.00
82474;BME280;72350;53.232;6.556;2024-02-14T01:15:56;101009.53;;;7.10;100.00
82474;BME280;72350;53.232;6.556;2024-02-14T01:18:23;101003.41;;;6.98;100.00
82474;BME280;72350;53.232;6.556;2024-02-14T01:20:53;101002.38;;;6.99;100.00
82474;BME280;72350;53.232;6.556;2024-02-14T01:23:21;100999.81;;;6.98;100.00
82474;BME280;72350;53.232;6.556;2024-02-14T01:25:50;101001.53;;;6.99;100.00
82474;BME280;72350;53.232;6.556;2024-02-14T01:28:18;101000.84;;;7.15;100.00
82474;BME280;72350;53.232;6.556;2024-02-14T01:30:46;100990.03;;;7.13;100.00
82474;BME280;72350;53.232;6.556;2024-02-14T01:33:14;100976.19;;;7.15;100.00
82474;BME280;72350;53.232;6.556;2024-02-14T01:35:43;100978.16;;;7.22;100.00
82474;BME280;72350;53.232;6.556;2024-02-14T01:38:13;100971.97;;;7.20;100.00
82474;BME280;72350;53.232;6.556;2024-02-14T01:40:42;100975.47;;;7.13;100.00
82474;BME280;72350;53.232;6.556;2024-02-14T01:43:11;100974.00;;;7.18;100.00
82474;BME280;72350;53.232;6.556;2024-02-14T01:45:41;100969.41;;;7.19;100.00
82474;BME280;72350;53.232;6.556;2024-02-14T01:48:09;100970.47;;;7.26;100.00
82474;BME280;72350;53.232;6.556;2024-02-14T01:50:37;100961.09;;;7.29;100.00
82474;BME280;72350;53.232;6.556;2024-02-14T01:53:07;100958.13;;;7.22;100.00
82474;BME280;72350;53.232;6.556;2024-02-14T01:55:36;100960.63;;;7.33;100.00
82474;BME280;72350;53.232;6.556;2024-02-14T01:58:04;100966.81;;;7.35;100.00
82474;BME280;72350;53.232;6.556;2024-02-14T02:00:33;100958.28;;;7.38;100.00
82474;BME280;72350;53.232;6.556;2024-02-14T02:03:07;100962.25;;;7.44;100.00
82474;BME280;72350;53.232;6.556;2024-02-14T02:05:35;100951.84;;;7.48;100.00
82474;BME280;72350;53.232;6.556;2024-02-14T02:08:06;100947.56;;;7.45;100.00
82474;BME280;72350;53.232;6.556;2024-02-14T02:10:36;100947.06;;;7.50;100.00
82474;BME280;72350;53.232;6.556;2024-02-14T02:13:04;100945.66;;;7.46;100.00
82474;BME280;72350;53.232;6.556;2024-02-14T02:15:32;100953.19;;;7.43;100.00
82474;BME280;72350;53.232;6.556;2024-02-14T02:18:00;100929.69;;;7.41;100.00
82474;BME280;72350;53.232;6.556;2024-02-14T02:20:32;100941.03;;;7.46;100.00
82474;BME280;72350;53.232;6.556;2024-02-14T02:23:02;100939.84;;;7.49;100.00
82474;BME280;72350;53.232;6.556;2024-02-14T02:25:31;100935.22;;;7.49;100.00
82474;BME280;72350;53.232;6.556;2024-02-14T02:27:59;100928.03;;;7.48;100.00
82474;BME280;72350;53.232;6.556;2024-02-14T02:30:29;100929.59;;;7.51;100.00
82474;BME280;72350;53.232;6.556;2024-02-14T02:32:57;100933.34;;;7.50;100.00
82474;BME280;72350;53.232;6.556;2024-02-14T02:35:25;100938.53;;;7.53;100.00
82474;BME280;72350;53.232;6.556;2024-02-14T02:37:53;100919.72;;;7.58;100.00
82474;BME280;72350;53.232;6.556;2024-02-14T02:40:22;100918.84;;;7.57;100.00
82474;BME280;72350;53.232;6.556;2024-02-14T02:42:50;100923.16;;;7.60;100.00
82474;BME280;72350;53.232;6.556;2024-02-14T02:45:19;100910.47;;;7.59;100.00
82474;BME280;72350;53.232;6.556;2024-02-14T02:47:47;100919.94;;;7.64;100.00
82474;BME280;72350;53.232;6.556;2024-02-14T02:50:18;100918.22;;;7.63;100.00
82474;BME280;72350;53.232;6.556;2024-02-14T02:52:47;100904.53;;;7.63;100.00
82474;BME280;72350;53.232;6.556;2024-02-14T02:55:14;100911.00;;;7.62;100.00
82474;BME280;72350;53.232;6.556;2024-02-14T02:57:45;100914.63;;;7.63;100.00
82474;BME280;72350;53.232;6.556;2024-02-14T03:00:14;100912.09;;;7.70;100.00
82474;BME280;72350;53.232;6.556;2024-02-14T03:02:42;100905.09;;;7.75;100.00
82474;BME280;72350;53.232;6.556;2024-02-14T03:05:12;100903.63;;;7.81;100.00
82474;BME280;72350;53.232;6.556;2024-02-14T03:07:46;100899.69;;;7.83;100.00
82474;BME280;72350;53.232;6.556;2024-02-14T03:10:16;100900.31;;;7.77;100.00
82474;BME280;72350;53.232;6.556;2024-02-14T03:12:47;100900.16;;;7.79;100.00
82474;BME280;72350;53.232;6.556;2024-02-14T03:15:16;100901.88;;;7.80;100.00
82474;BME280;72350;53.232;6.556;2024-02-14T03:17:45;100899.00;;;7.81;100.00
82474;BME280;72350;53.232;6.556;2024-02-14T03:20:13;100889.72;;;7.82;100.00
82474;BME280;72350;53.232;6.556;2024-02-14T03:22:44;100899.31;;;7.78;100.00
82474;BME280;72350;53.232;6.556;2024-02-14T03:25:16;100900.53;;;7.84;100.00
82474;BME280;72350;53.232;6.556;2024-02-14T03:27:44;100892.47;;;7.82;100.00
82474;BME280;72350;53.232;6.556;2024-02-14T03:30:16;100891.13;;;7.86;100.00
82474;BME280;72350;53.232;6.556;2024-02-14T03:32:45;100889.06;;;7.88;100.00
82474;BME280;72350;53.232;6.556;2024-02-14T03:35:13;100888.22;;;7.88;100.00
82474;BME280;72350;53.232;6.556;2024-02-14T03:37:42;100892.00;;;7.87;100.00
82474;BME280;72350;53.232;6.556;2024-02-14T03:40:14;100890.97;;;7.88;100.00
82474;BME280;72350;53.232;6.556;2024-02-14T03:42:42;100888.59;;;7.93;100.00
82474;BME280;72350;53.232;6.556;2024-02-14T03:45:11;100900.41;;;7.94;100.00
82474;BME280;72350;53.232;6.556;2024-02-14T03:47:40;100888.59;;;7.93;100.00
82474;BME280;72350;53.232;6.556;2024-02-14T03:50:09;100880.69;;;7.90;100.00
82474;BME280;72350;53.232;6.556;2024-02-14T03:52:37;100886.19;;;7.90;100.00
82474;BME280;72350;53.232;6.556;2024-02-14T03:55:06;100879.88;;;7.98;100.00
82474;BME280;72350;53.232;6.556;2024-02-14T03:57:35;100881.91;;;7.96;100.00
82474;BME280;72350;53.232;6.556;2024-02-14T04:00:07;100892.41;;;8.00;100.00
82474;BME280;72350;53.232;6.556;2024-02-14T04:02:39;100891.22;;;8.03;100.00
82474;BME280;72350;53.232;6.556;2024-02-14T04:05:08;100887.44;;;8.04;100.00
82474;BME280;72350;53.232;6.556;2024-02-14T04:07:36;100890.06;;;8.14;100.00
82474;BME280;72350;53.232;6.556;2024-02-14T04:10:05;100893.16;;;8.10;100.00
82474;BME280;72350;53.232;6.556;2024-02-14T04:12:34;100893.47;;;8.07;100.00
82474;BME280;72350;53.232;6.556;2024-02-14T04:15:02;100895.88;;;8.10;100.00
82474;BME280;72350;53.232;6.556;2024-02-14T04:17:30;100909.59;;;8.10;100.00
82474;BME280;72350;53.232;6.556;2024-02-14T04:19:59;100894.69;;;8.13;100.00
82474;BME280;72350;53.232;6.556;2024-02-14T04:22:27;100889.25;;;8.21;100.00
82474;BME280;72350;53.232;6.556;2024-02-14T04:24:55;100895.44;;;8.23;100.00
82474;BME280;72350;53.232;6.556;2024-02-14T04:27:23;100901.44;;;8.27;100.00
82474;BME280;72350;53.232;6.556;2024-02-14T04:29:51;100895.47;;;8.31;100.00
82474;BME280;72350;53.232;6.556;2024-02-14T04:32:19;100899.41;;;8.29;100.00
82474;BME280;72350;53.232;6.556;2024-02-14T04:34:47;100898.13;;;8.41;100.00
82474;BME280;72350;53.232;6.556;2024-02-14T04:37:17;100906.50;;;8.40;100.00
82474;BME280;72350;53.232;6.556;2024-02-14T04:39:46;100903.75;;;8.40;100.00
82474;BME280;72350;53.232;6.556;2024-02-14T04:42:14;100908.41;;;8.39;100.00
82474;BME280;72350;53.232;6.556;2024-02-14T04:44:42;100905.84;;;8.46;100.00
82474;BME280;72350;53.232;6.556;2024-02-14T04:47:10;100912.03;;;8.48;100.00
82474;BME280;72350;53.232;6.556;2024-02-14T04:49:38;100905.34;;;8.50;100.00
82474;BME280;72350;53.232;6.556;2024-02-14T04:52:06;100908.63;;;8.54;100.00
82474;BME280;72350;53.232;6.556;2024-02-14T04:54:36;100912.06;;;8.56;100.00
82474;BME280;72350;53.232;6.556;2024-02-14T04:57:04;100906.41;;;8.66;100.00
82474;BME280;72350;53.232;6.556;2024-02-14T04:59:32;100915.50;;;8.66;100.00
82474;BME280;72350;53.232;6.556;2024-02-14T05:02:00;100914.66;;;8.66;100.00
82474;BME280;72350;53.232;6.556;2024-02-14T05:04:27;100915.84;;;8.63;100.00
82474;BME280;72350;53.232;6.556;2024-02-14T05:06:56;100919.81;;;8.69;100.00
82474;BME280;72350;53.232;6.556;2024-02-14T05:09:25;100921.41;;;8.80;100.00
82474;BME280;72350;53.232;6.556;2024-02-14T05:11:54;100922.41;;;8.79;100.00
82474;BME280;72350;53.232;6.556;2024-02-14T05:14:23;100926.56;;;8.83;100.00
82474;BME280;72350;53.232;6.556;2024-02-14T05:16:50;100923.78;;;8.74;100.00
82474;BME280;72350;53.232;6.556;2024-02-14T05:19:18;100930.31;;;8.82;100.00
82474;BME280;72350;53.232;6.556;2024-02-14T05:21:49;100932.38;;;8.80;100.00
82474;BME280;72350;53.232;6.556;2024-02-14T05:24:17;100933.41;;;8.79;100.00
82474;BME280;72350;53.232;6.556;2024-02-14T05:26:45;100934.59;;;8.84;100.00
82474;BME280;72350;53.232;6.556;2024-02-14T05:29:15;100942.84;;;8.84;100.00
82474;BME280;72350;53.232;6.556;2024-02-14T05:31:46;100938.06;;;8.86;100.00
82474;BME280;72350;53.232;6.556;2024-02-14T05:34:15;100943.75;;;8.93;100.00
82474;BME280;72350;53.232;6.556;2024-02-14T05:36:45;100950.78;;;8.95;100.00
82474;BME280;72350;53.232;6.556;2024-02-14T05:39:14;100941.69;;;8.95;100.00
82474;BME280;72350;53.232;6.556;2024-02-14T05:41:43;100950.78;;;8.87;100.00
82474;BME280;72350;53.232;6.556;2024-02-14T05:44:11;100960.06;;;9.03;100.00
82474;BME280;72350;53.232;6.556;2024-02-14T05:46:42;100958.19;;;8.95;100.00
82474;BME280;72350;53.232;6.556;2024-02-14T05:49:12;100951.50;;;8.98;100.00
82474;BME280;72350;53.232;6.556;2024-02-14T05:51:40;100953.19;;;8.99;100.00
82474;BME280;72350;53.232;6.556;2024-02-14T05:54:08;100961.59;;;9.05;100.00
82474;BME280;72350;53.232;6.556;2024-02-14T05:56:36;100956.66;;;9.01;100.00
82474;BME280;72350;53.232;6.556;2024-02-14T05:59:06;100960.41;;;9.08;100.00
82474;BME280;72350;53.232;6.556;2024-02-14T06:01:34;100962.31;;;9.07;100.00
82474;BME280;72350;53.232;6.556;2024-02-14T06:04:04;100967.47;;;9.10;100.00
82474;BME280;72350;53.232;6.556;2024-02-14T06:06:32;100972.94;;;9.10;100.00
82474;BME280;72350;53.232;6.556;2024-02-14T06:09:00;100968.69;;;9.16;100.00
82474;BME280;72350;53.232;6.556;2024-02-14T06:11:36;100970.41;;;9.17;100.00
82474;BME280;72350;53.232;6.556;2024-02-14T06:14:06;100977.09;;;9.23;100.00
82474;BME280;72350;53.232;6.556;2024-02-14T06:16:36;100980.03;;;9.21;100.00
82474;BME280;72350;53.232;6.556;2024-02-14T06:19:06;100983.81;;;9.28;100.00
82474;BME280;72350;53.232;6.556;2024-02-14T06:21:39;100982.44;;;9.24;100.00
82474;BME280;72350;53.232;6.556;2024-02-14T06:24:09;100985.72;;;9.28;100.00
82474;BME280;72350;53.232;6.556;2024-02-14T06:26:41;100987.94;;;9.32;100.00
82474;BME280;72350;53.232;6.556;2024-02-14T06:29:10;100998.59;;;9.35;100.00
82474;BME280;72350;53.232;6.556;2024-02-14T06:31:37;100996.56;;;9.37;100.00
82474;BME280;72350;53.232;6.556;2024-02-14T06:34:07;100999.31;;;9.37;100.00
82474;BME280;72350;53.232;6.556;2024-02-14T06:36:35;100988.66;;;9.43;100.00
82474;BME280;72350;53.232;6.556;2024-02-14T06:39:06;100999.81;;;9.49;100.00
82474;BME280;72350;53.232;6.556;2024-02-14T06:41:34;100996.22;;;9.57;100.00
82474;BME280;72350;53.232;6.556;2024-02-14T06:44:02;100997.78;;;9.68;100.00
82474;BME280;72350;53.232;6.556;2024-02-14T06:46:30;100994.16;;;9.67;100.00
82474;BME280;72350;53.232;6.556;2024-02-14T06:48:58;100998.44;;;9.70;100.00
82474;BME280;72350;53.232;6.556;2024-02-14T06:51:27;101005.16;;;9.67;100.00
82474;BME280;72350;53.232;6.556;2024-02-14T06:53:55;101012.75;;;9.73;100.00
82474;BME280;72350;53.232;6.556;2024-02-14T06:56:23;101017.38;;;9.73;100.00
82474;BME280;72350;53.232;6.556;2024-02-14T06:58:51;101023.75;;;9.73;100.00
82474;BME280;72350;53.232;6.556;2024-02-14T07:01:26;101025.78;;;9.88;100.00
82474;BME280;72350;53.232;6.556;2024-02-14T07:03:56;101031.13;;;9.81;100.00
82474;BME280;72350;53.232;6.556;2024-02-14T07:06:23;101038.00;;;9.85;100.00
82474;BME280;72350;53.232;6.556;2024-02-14T07:08:53;101036.28;;;9.84;100.00
82474;BME280;72350;53.232;6.556;2024-02-14T07:11:21;101048.34;;;9.91;100.00
82474;BME280;72350;53.232;6.556;2024-02-14T07:13:50;101046.78;;;9.97;100.00
82474;BME280;72350;53.232;6.556;2024-02-14T07:16:18;101050.38;;;9.97;100.00
82474;BME280;72350;53.232;6.556;2024-02-14T07:18:46;101055.38;;;9.94;100.00
82474;BME280;72350;53.232;6.556;2024-02-14T07:21:14;101060.34;;;9.98;100.00
82474;BME280;72350;53.232;6.556;2024-02-14T07:23:43;101067.41;;;9.93;100.00
82474;BME280;72350;53.232;6.556;2024-02-14T07:26:13;101068.09;;;10.03;100.00
82474;BME280;72350;53.232;6.556;2024-02-14T07:28:40;101060.34;;;9.98;100.00
82474;BME280;72350;53.232;6.556;2024-02-14T07:31:08;101072.75;;;9.94;100.00
82474;BME280;72350;53.232;6.556;2024-02-14T07:33:36;101065.50;;;9.93;100.00
82474;BME280;72350;53.232;6.556;2024-02-14T07:36:05;101072.03;;;10.00;100.00
82474;BME280;72350;53.232;6.556;2024-02-14T07:38:33;101074.44;;;10.03;100.00
82474;BME280;72350;53.232;6.556;2024-02-14T07:41:00;101076.53;;;10.01;100.00
82474;BME280;72350;53.232;6.556;2024-02-14T07:43:30;101078.75;;;9.98;100.00
82474;BME280;72350;53.232;6.556;2024-02-14T07:45:58;101082.91;;;10.02;100.00
82474;BME280;72350;53.232;6.556;2024-02-14T07:48:26;101089.41;;;10.01;100.00
82474;BME280;72350;53.232;6.556;2024-02-14T07:50:54;101101.66;;;10.06;100.00
82474;BME280;72350;53.232;6.556;2024-02-14T07:53:23;101101.81;;;10.13;100.00
82474;BME280;72350;53.232;6.556;2024-02-14T07:55:51;101092.00;;;10.11;100.00
82474;BME280;72350;53.232;6.556;2024-02-14T07:58:19;101090.47;;;10.00;100.00
82474;BME280;72350;53.232;6.556;2024-02-14T08:00:48;101090.09;;;10.03;100.00
82474;BME280;72350;53.232;6.556;2024-02-14T08:03:17;101096.81;;;10.00;100.00
82474;BME280;72350;53.232;6.556;2024-02-14T08:05:45;101097.00;;;10.07;100.00
82474;BME280;72350;53.232;6.556;2024-02-14T08:08:13;101100.59;;;10.07;100.00
82474;BME280;72350;53.232;6.556;2024-02-14T08:10:41;101096.47;;;10.03;100.00
82474;BME280;72350;53.232;6.556;2024-02-14T08:13:09;101100.25;;;10.02;100.00
82474;BME280;72350;53.232;6.556;2024-02-14T08:15:37;101097.16;;;10.05;100.00
82474;BME280;72350;53.232;6.556;2024-02-14T08:18:08;101104.56;;;10.13;100.00
82474;BME280;72350;53.232;6.556;2024-02-14T08:20:37;101103.34;;;10.16;100.00
82474;BME280;72350;53.232;6.556;2024-02-14T08:23:05;101099.41;;;10.10;100.00
82474;BME280;72350;53.232;6.556;2024-02-14T08:25:33;101104.91;;;10.10;100.00
82474;BME280;72350;53.232;6.556;2024-02-14T08:28:00;101107.31;;;10.13;100.00
82474;BME280;72350;53.232;6.556;2024-02-14T08:30:29;101109.22;;;10.13;100.00
82474;BME280;72350;53.232;6.556;2024-02-14T08:32:57;101109.22;;;10.13;100.00
82474;BME280;72350;53.232;6.556;2024-02-14T08:35:27;101115.41;;;10.15;100.00
82474;BME280;72350;53.232;6.556;2024-02-14T08:37:55;101096.13;;;10.23;100.00
82474;BME280;72350;53.232;6.556;2024-02-14T08:40:25;101103.19;;;10.17;100.00
82474;BME280;72350;53.232;6.556;2024-02-14T08:42:53;101102.84;;;10.12;100.00
82474;BME280;72350;53.232;6.556;2024-02-14T08:45:21;101111.97;;;10.13;100.00
82474;BME280;72350;53.232;6.556;2024-02-14T08:47:50;101109.38;;;10.11;100.00
82474;BME280;72350;53.232;6.556;2024-02-14T08:50:18;101120.38;;;10.11;100.00
82474;BME280;72350;53.232;6.556;2024-02-14T08:52:47;101114.38;;;10.16;100.00
82474;BME280;72350;53.232;6.556;2024-02-14T08:55:15;101112.47;;;10.16;100.00
82474;BME280;72350;53.232;6.556;2024-02-14T08:57:45;101120.06;;;10.22;100.00
82474;BME280;72350;53.232;6.556;2024-02-14T09:00:16;101111.59;;;10.16;100.00
82474;BME280;72350;53.232;6.556;2024-02-14T09:02:47;101131.22;;;10.21;100.00
82474;BME280;72350;53.232;6.556;2024-02-14T09:05:15;101117.31;;;10.22;100.00
82474;BME280;72350;53.232;6.556;2024-02-14T09:07:44;101125.72;;;10.21;100.00
82474;BME280;72350;53.232;6.556;2024-02-14T09:10:13;101122.28;;;10.19;100.00
82474;BME280;72350;53.232;6.556;2024-02-14T09:12:42;101133.81;;;10.22;100.00
82474;BME280;72350;53.232;6.556;2024-02-14T09:15:10;101136.38;;;10.24;100.00
82474;BME280;72350;53.232;6.556;2024-02-14T09:17:39;101133.00;;;10.30;100.00
82474;BME280;72350;53.232;6.556;2024-02-14T09:20:09;101133.28;;;10.27;100.00
82474;BME280;72350;53.232;6.556;2024-02-14T09:22:40;101136.22;;;10.25;100.00
82474;BME280;72350;53.232;6.556;2024-02-14T09:25:09;101140.22;;;10.31;100.00
82474;BME280;72350;53.232;6.556;2024-02-14T09:27:38;101140.38;;;10.30;100.00
82474;BME280;72350;53.232;6.556;2024-02-14T09:30:08;101145.38;;;10.34;100.00
82474;BME280;72350;53.232;6.556;2024-02-14T09:32:50;101140.91;;;10.33;100.00
82474;BME280;72350;53.232;6.556;2024-02-14T09:35:18;101141.25;;;10.38;100.00
82474;BME280;72350;53.232;6.556;2024-02-14T09:37:47;101141.41;;;10.37;100.00
82474;BME280;72350;53.232;6.556;2024-02-14T09:40:15;101134.19;;;10.36;100.00
82474;BME280;72350;53.232;6.556;2024-02-14T09:42:51;101140.19;;;10.39;100.00
82474;BME280;72350;53.232;6.556;2024-02-14T09:45:22;101140.03;;;10.41;100.00
82474;BME280;72350;53.232;6.556;2024-02-14T09:47:52;101143.81;;;10.40;100.00
82474;BME280;72350;53.232;6.556;2024-02-14T09:50:21;101155.34;;;10.43;100.00
82474;BME280;72350;53.232;6.556;2024-02-14T09:52:49;101157.59;;;10.48;100.00
82474;BME280;72350;53.232;6.556;2024-02-14T09:55:17;101152.75;;;10.42;100.00
82474;BME280;72350;53.232;6.556;2024-02-14T09:57:48;101162.06;;;10.41;100.00
82474;BME280;72350;53.232;6.556;2024-02-14T10:00:17;101158.97;;;10.36;100.00
82474;BME280;72350;53.232;6.556;2024-02-14T10:02:46;101162.72;;;10.35;100.00
82474;BME280;72350;53.232;6.556;2024-02-14T10:05:14;101161.72;;;10.36;100.00
82474;BME280;72350;53.232;6.556;2024-02-14T10:07:43;101171.88;;;10.35;100.00
82474;BME280;72350;53.232;6.556;2024-02-14T10:10:12;101174.63;;;10.43;100.00
82474;BME280;72350;53.232;6.556;2024-02-14T10:12:41;101169.97;;;10.36;100.00
82474;BME280;72350;53.232;6.556;2024-02-14T10:15:10;101174.63;;;10.35;100.00
82474;BME280;72350;53.232;6.556;2024-02-14T10:17:39;101176.69;;;10.33;100.00
82474;BME280;72350;53.232;6.556;2024-02-14T10:20:09;101181.84;;;10.28;100.00
82474;BME280;72350;53.232;6.556;2024-02-14T10:22:38;101184.41;;;10.30;100.00
82474;BME280;72350;53.232;6.556;2024-02-14T10:25:06;101178.25;;;10.36;100.00
82474;BME280;72350;53.232;6.556;2024-02-14T10:27:36;101178.06;;;10.45;100.00
82474;BME280;72350;53.232;6.556;2024-02-14T10:30:06;101186.66;;;10.42;100.00
82474;BME280;72350;53.232;6.556;2024-02-14T10:32:38;101188.03;;;10.46;100.00
82474;BME280;72350;53.232;6.556;2024-02-14T10:35:08;101186.16;;;10.47;100.00
82474;BME280;72350;53.232;6.556;2024-02-14T10:37:38;101188.22;;;10.45;100.00
82474;BME280;72350;53.232;6.556;2024-02-14T10:40:07;101186.00;;;10.48;100.00
82474;BME280;72350;53.232;6.556;2024-02-14T10:42:35;101190.28;;;10.51;100.00
82474;BME280;72350;53.232;6.556;2024-02-14T10:45:04;101192.34;;;10.49;100.00
82474;BME280;72350;53.232;6.556;2024-02-14T10:47:35;101193.72;;;10.45;100.00
82474;BME280;72350;53.232;6.556;2024-02-14T10:50:06;101203.19;;;10.59;100.00
82474;BME280;72350;53.232;6.556;2024-02-14T10:52:36;101198.72;;;10.49;100.00
82474;BME280;72350;53.232;6.556;2024-02-14T10:55:05;101196.16;;;10.48;100.00
82474;BME280;72350;53.232;6.556;2024-02-14T10:57:33;101199.91;;;10.47;100.00
82474;BME280;72350;53.232;6.556;2024-02-14T11:00:03;101203.72;;;10.46;100.00
82474;BME280;72350;53.232;6.556;2024-02-14T11:02:33;101205.25;;;10.48;100.00
82474;BME280;72350;53.232;6.556;2024-02-14T11:05:02;101202.66;;;10.55;100.00
82474;BME280;72350;53.232;6.556;2024-02-14T11:07:32;101205.41;;;10.55;100.00
82474;BME280;72350;53.232;6.556;2024-02-14T11:10:01;101205.59;;;10.62;100.00
82474;BME280;72350;53.232;6.556;2024-02-14T11:12:33;101204.06;;;10.51;100.00
82474;BME280;72350;53.232;6.556;2024-02-14T11:15:09;101205.25;;;10.65;100.00
82474;BME280;72350;53.232;6.556;2024-02-14T11:17:39;101199.91;;;10.55;100.00
82474;BME280;72350;53.232;6.556;2024-02-14T11:20:17;101199.56;;;10.58;100.00
82474;BME280;72350;53.232;6.556;2024-02-14T11:23:01;101200.09;;;10.62;100.00
82474;BME280;72350;53.232;6.556;2024-02-14T11:25:32;101196.81;;;10.58;100.00
82474;BME280;72350;53.232;6.556;2024-02-14T11:28:12;101200.59;;;10.57;100.00
82474;BME280;72350;53.232;6.556;2024-02-14T11:30:41;101201.09;;;10.61;100.00
82474;BME280;72350;53.232;6.556;2024-02-14T11:33:13;101210.59;;;10.58;100.00
82474;BME280;72350;53.232;6.556;2024-02-14T11:35:42;101196.66;;;10.60;100.00
82474;BME280;72350;53.232;6.556;2024-02-14T11:38:12;101202.31;;;10.58;100.00
82474;BME280;72350;53.232;6.556;2024-02-14T11:40:40;101207.31;;;10.63;100.00
82474;BME280;72350;53.232;6.556;2024-02-14T11:43:11;101199.91;;;10.63;100.00
82474;BME280;72350;53.232;6.556;2024-02-14T11:45:41;101206.97;;;10.66;100.00
82474;BME280;72350;53.232;6.556;2024-02-14T11:48:11;101206.09;;;10.65;100.00
82474;BME280;72350;53.232;6.556;2024-02-14T11:50:40;101207.84;;;10.66;100.00
82474;BME280;72350;53.232;6.556;2024-02-14T11:53:10;101205.44;;;10.71;100.00
82474;BME280;72350;53.232;6.556;2024-02-14T11:55:39;101207.16;;;10.73;100.00
82474;BME280;72350;53.232;6.556;2024-02-14T11:58:08;101205.94;;;10.75;100.00
82474;BME280;72350;53.232;6.556;2024-02-14T12:00:37;101199.72;;;10.73;100.00
82474;BME280;72350;53.232;6.556;2024-02-14T12:03:07;101200.28;;;10.77;100.00
82474;BME280;72350;53.232;6.556;2024-02-14T12:05:36;101200.06;;;10.78;100.00
82474;BME280;72350;53.232;6.556;2024-02-14T12:08:06;101209.19;;;10.79;100.00
82474;BME280;72350;53.232;6.556;2024-02-14T12:10:35;101205.78;;;10.77;100.00
82474;BME280;72350;53.232;6.556;2024-02-14T12:13:11;101200.59;;;10.82;100.00
82474;BME280;72350;53.232;6.556;2024-02-14T12:15:43;101199.03;;;10.87;100.00
82474;BME280;72350;53.232;6.556;2024-02-14T12:18:12;101198.19;;;10.95;100.00
82474;BME280;72350;53.232;6.556;2024-02-14T12:20:41;101195.75;;;10.92;100.00
82474;BME280;72350;53.232;6.556;2024-02-14T12:23:14;101192.97;;;10.92;100.00
82474;BME280;72350;53.232;6.556;2024-02-14T12:25:44;101195.75;;;10.92;100.00
82474;BME280;72350;53.232;6.556;2024-02-14T12:28:15;101195.22;;;10.97;100.00
82474;BME280;72350;53.232;6.556;2024-02-14T12:30:44;101195.56;;;11.02;100.00
82474;BME280;72350;53.232;6.556;2024-02-14T12:33:13;101189.19;;;11.01;100.00
82474;BME280;72350;53.232;6.556;2024-02-14T12:35:42;101199.88;;;10.96;100.00
82474;BME280;72350;53.232;6.556;2024-02-14T12:38:11;101195.56;;;11.02;100.00
82474;BME280;72350;53.232;6.556;2024-02-14T12:40:41;101204.19;;;10.99;100.00
82474;BME280;72350;53.232;6.556;2024-02-14T12:43:09;101192.31;;;10.98;100.00
82474;BME280;72350;53.232;6.556;2024-02-14T12:45:39;101193.00;;;11.00;100.00
82474;BME280;72350;53.232;6.556;2024-02-14T12:48:08;101190.75;;;11.04;100.00
82474;BME280;72350;53.232;6.556;2024-02-14T12:50:36;101194.19;;;11.06;100.00
82474;BME280;72350;53.232;6.556;2024-02-14T12:53:05;101190.56;;;11.05;100.00
82474;BME280;72350;53.232;6.556;2024-02-14T12:55:33;101198.31;;;11.02;100.00